sensor_id;sensor_type;location;lat;lon;timestamp;temperature;humidity
48988;DHT22;34799;51.440;-2.534;2023-07-31T00:00:46;17.20;99.90
48988;DHT22;34799;51.440;-2.534;2023-07-31T00:03:14;17.20;99.90
48988;DHT22;34799;51.440;-2.534;2023-07-31T00:05:41;17.20;99.90
48988;DHT22;34799;51.440;-2.534;2023-07-31T00:08:09;17.20;99.90
48988;DHT22;34799;51.440;-2.534;2023-07-31T00:10:36;17.20;99.90
48988;DHT22;34799;51.440;-2.534;2023-07-31T00:13:03;17.20;99.90
48988;DHT22;34799;51.440;-2.534;2023-07-31T00:15:30;17.20;99.90
48988;DHT22;34799;51.440;-2.534;2023-07-31T00:17:57;17.20;99.90
48988;DHT22;34799;51.440;-2.534;2023-07-31T00:20:25;17.20;99.90
48988;DHT22;34799;51.440;-2.534;2023-07-31T00:22:52;17.20;99.90
48988;DHT22;34799;51.440;-2.534;2023-07-31T00:25:19;17.20;99.90
48988;DHT22;34799;51.440;-2.534;2023-07-31T00:27:46;17.20;99.90
48988;DHT22;34799;51.440;-2.534;2023-07-31T00:30:13;17.20;99.90
48988;DHT22;34799;51.440;-2.534;2023-07-31T00:32:40;17.20;99.90
48988;DHT22;34799;51.440;-2.534;2023-07-31T00:35:07;17.20;99.90
48988;DHT22;34799;51.440;-2.534;2023-07-31T00:37:34;17.30;99.90
48988;DHT22;34799;51.440;-2.534;2023-07-31T00:40:01;17.30;99.90
48988;DHT22;34799;51.440;-2.534;2023-07-31T00:42:30;17.30;99.90
48988;DHT22;34799;51.440;-2.534;2023-07-31T00:44:57;17.20;99.90
48988;DHT22;34799;51.440;-2.534;2023-07-31T00:47:24;17.30;99.90
48988;DHT22;34799;51.440;-2.534;2023-07-31T00:49:52;17.20;99.90
48988;DHT22;34799;51.440;-2.534;2023-07-31T00:52:20;17.30;99.90
48988;DHT22;34799;51.440;-2.534;2023-07-31T00:54:48;17.30;99.90
48988;DHT22;34799;51.440;-2.534;2023-07-31T00:57:15;17.30;99.90
48988;DHT22;34799;51.440;-2.534;2023-07-31T00:59:43;17.30;99.90
48988;DHT22;34799;51.440;-2.534;2023-07-31T01:02:10;17.30;99.90
48988;DHT22;34799;51.440;-2.534;2023-07-31T01:04:38;17.30;99.90
48988;DHT22;34799;51.440;-2.534;2023-07-31T01:10:26;17.30;99.90
48988;DHT22;34799;51.440;-2.534;2023-07-31T01:12:57;17.30;99.90
48988;DHT22;34799;51.440;-2.534;2023-07-31T01:15:24;17.30;99.90
48988;DHT22;34799;51.440;-2.534;2023-07-31T01:17:51;17.30;99.90
48988;DHT22;34799;51.440;-2.534;2023-07-31T01:20:22;17.30;99.90
48988;DHT22;34799;51.440;-2.534;2023-07-31T01:26:21;17.30;99.90
48988;DHT22;34799;51.440;-2.534;2023-07-31T01:31:24;17.30;99.90
48988;DHT22;34799;51.440;-2.534;2023-07-31T01:33:57;17.30;99.90
48988;DHT22;34799;51.440;-2.534;2023-07-31T01:36:27;17.40;99.90
48988;DHT22;34799;51.440;-2.534;2023-07-31T01:38:59;17.40;99.90
48988;DHT22;34799;51.440;-2.534;2023-07-31T01:41:27;17.40;99.90
48988;DHT22;34799;51.440;-2.534;2023-07-31T01:43:55;17.40;99.90
48988;DHT22;34799;51.440;-2.534;2023-07-31T01:46:23;17.40;99.90
48988;DHT22;34799;51.440;-2.534;2023-07-31T01:48:50;17.40;99.90
48988;DHT22;34799;51.440;-2.534;2023-07-31T01:51:17;17.40;99.90
48988;DHT22;34799;51.440;-2.534;2023-07-31T01:53:44;17.40;99.90
48988;DHT22;34799;51.440;-2.534;2023-07-31T01:56:12;17.40;99.90
48988;DHT22;34799;51.440;-2.534;2023-07-31T01:58:39;17.40;99.90
48988;DHT22;34799;51.440;-2.534;2023-07-31T02:01:06;17.50;99.90
48988;DHT22;34799;51.440;-2.534;2023-07-31T02:03:34;17.40;99.90
48988;DHT22;34799;51.440;-2.534;2023-07-31T02:06:01;17.50;99.90
48988;DHT22;34799;51.440;-2.534;2023-07-31T02:08:29;17.50;99.90
48988;DHT22;34799;51.440;-2.534;2023-07-31T02:10:56;17.50;99.90
48988;DHT22;34799;51.440;-2.534;2023-07-31T02:13:23;17.50;99.90
48988;DHT22;34799;51.440;-2.534;2023-07-31T02:15:51;17.50;99.90
48988;DHT22;34799;51.440;-2.534;2023-07-31T02:18:18;17.50;99.90
48988;DHT22;34799;51.440;-2.534;2023-07-31T02:20:49;17.60;99.90
48988;DHT22;34799;51.440;-2.534;2023-07-31T02:23:20;17.60;99.90
48988;DHT22;34799;51.440;-2.534;2023-07-31T02:25:48;17.50;99.90
48988;DHT22;34799;51.440;-2.534;2023-07-31T02:28:15;17.50;99.90
48988;DHT22;34799;51.440;-2.534;2023-07-31T02:30:45;17.50;99.90
48988;DHT22;34799;51.440;-2.534;2023-07-31T02:33:15;17.50;99.90
48988;DHT22;34799;51.440;-2.534;2023-07-31T02:35:43;17.50;99.90
48988;DHT22;34799;51.440;-2.534;2023-07-31T02:38:10;17.40;99.90
48988;DHT22;34799;51.440;-2.534;2023-07-31T02:40:37;17.40;99.90
48988;DHT22;34799;51.440;-2.534;2023-07-31T02:43:04;17.40;99.90
48988;DHT22;34799;51.440;-2.534;2023-07-31T02:45:31;17.50;99.90
48988;DHT22;34799;51.440;-2.534;2023-07-31T02:47:58;17.40;99.90
48988;DHT22;34799;51.440;-2.534;2023-07-31T02:50:25;17.40;99.90
48988;DHT22;34799;51.440;-2.534;2023-07-31T02:52:54;17.30;99.90
48988;DHT22;34799;51.440;-2.534;2023-07-31T02:55:21;17.30;99.90
48988;DHT22;34799;51.440;-2.534;2023-07-31T02:57:48;17.30;99.90
48988;DHT22;34799;51.440;-2.534;2023-07-31T03:00:15;17.30;99.90
48988;DHT22;34799;51.440;-2.534;2023-07-31T03:02:42;17.30;99.90
48988;DHT22;34799;51.440;-2.534;2023-07-31T03:05:10;17.40;99.90
48988;DHT22;34799;51.440;-2.534;2023-07-31T03:07:37;17.30;99.90
48988;DHT22;34799;51.440;-2.534;2023-07-31T03:10:04;17.40;99.90
48988;DHT22;34799;51.440;-2.534;2023-07-31T03:12:32;17.40;99.90
48988;DHT22;34799;51.440;-2.534;2023-07-31T03:14:59;17.40;99.90
48988;DHT22;34799;51.440;-2.534;2023-07-31T03:17:26;17.30;99.90
48988;DHT22;34799;51.440;-2.534;2023-07-31T03:19:53;17.30;99.90
48988;DHT22;34799;51.440;-2.534;2023-07-31T03:22:21;17.30;99.90
48988;DHT22;34799;51.440;-2.534;2023-07-31T03:24:48;17.40;99.90
48988;DHT22;34799;51.440;-2.534;2023-07-31T03:27:16;17.40;99.90
48988;DHT22;34799;51.440;-2.534;2023-07-31T03:29:43;17.40;99.90
48988;DHT22;34799;51.440;-2.534;2023-07-31T03:32:11;17.30;99.90
48988;DHT22;34799;51.440;-2.534;2023-07-31T03:34:38;17.30;99.90
48988;DHT22;34799;51.440;-2.534;2023-07-31T03:37:06;17.30;99.90
48988;DHT22;34799;51.440;-2.534;2023-07-31T03:39:33;17.30;99.90
48988;DHT22;34799;51.440;-2.534;2023-07-31T03:42:00;17.30;99.90
48988;DHT22;34799;51.440;-2.534;2023-07-31T03:44:28;17.30;99.90
48988;DHT22;34799;51.440;-2.534;2023-07-31T03:46:56;17.30;99.90
48988;DHT22;34799;51.440;-2.534;2023-07-31T03:49:23;17.30;99.90
48988;DHT22;34799;51.440;-2.534;2023-07-31T03:51:50;17.30;99.90
48988;DHT22;34799;51.440;-2.534;2023-07-31T03:54:18;17.30;99.90
48988;DHT22;34799;51.440;-2.534;2023-07-31T03:56:45;17.30;99.90
48988;DHT22;34799;51.440;-2.534;2023-07-31T03:59:13;17.20;99.90
48988;DHT22;34799;51.440;-2.534;2023-07-31T04:01:40;17.20;99.90
48988;DHT22;34799;51.440;-2.534;2023-07-31T04:04:08;17.20;99.90
48988;DHT22;34799;51.440;-2.534;2023-07-31T04:06:35;17.10;99.90
48988;DHT22;34799;51.440;-2.534;2023-07-31T04:09:03;17.10;99.90
48988;DHT22;34799;51.440;-2.534;2023-07-31T04:11:30;17.10;99.90
48988;DHT22;34799;51.440;-2.534;2023-07-31T04:13:58;17.10;99.90
48988;DHT22;34799;51.440;-2.534;2023-07-31T04:16:25;17.00;99.90
48988;DHT22;34799;51.440;-2.534;2023-07-31T04:18:52;17.10;99.90
48988;DHT22;34799;51.440;-2.534;2023-07-31T04:21:20;17.10;99.90
48988;DHT22;34799;51.440;-2.534;2023-07-31T04:23:47;17.10;99.90
48988;DHT22;34799;51.440;-2.534;2023-07-31T04:26:15;17.10;99.90
48988;DHT22;34799;51.440;-2.534;2023-07-31T04:28:42;17.10;99.90
48988;DHT22;34799;51.440;-2.534;2023-07-31T04:31:09;17.10;99.90
48988;DHT22;34799;51.440;-2.534;2023-07-31T04:33:37;17.10;99.90
48988;DHT22;34799;51.440;-2.534;2023-07-31T04:36:05;17.00;99.90
48988;DHT22;34799;51.440;-2.534;2023-07-31T04:38:32;17.00;99.90
48988;DHT22;34799;51.440;-2.534;2023-07-31T04:40:59;17.00;99.90
48988;DHT22;34799;51.440;-2.534;2023-07-31T04:43:27;17.00;99.90
48988;DHT22;34799;51.440;-2.534;2023-07-31T04:45:54;16.90;99.90
48988;DHT22;34799;51.440;-2.534;2023-07-31T04:48:21;16.90;99.90
48988;DHT22;34799;51.440;-2.534;2023-07-31T04:50:49;16.90;99.90
48988;DHT22;34799;51.440;-2.534;2023-07-31T04:53:16;16.90;99.90
48988;DHT22;34799;51.440;-2.534;2023-07-31T04:55:44;16.90;99.90
48988;DHT22;34799;51.440;-2.534;2023-07-31T04:58:11;16.80;99.90
48988;DHT22;34799;51.440;-2.534;2023-07-31T05:00:38;16.90;99.90
48988;DHT22;34799;51.440;-2.534;2023-07-31T05:03:06;16.90;99.90
48988;DHT22;34799;51.440;-2.534;2023-07-31T05:05:34;17.00;99.90
48988;DHT22;34799;51.440;-2.534;2023-07-31T05:08:01;16.90;99.90
48988;DHT22;34799;51.440;-2.534;2023-07-31T05:10:28;17.00;99.90
48988;DHT22;34799;51.440;-2.534;2023-07-31T05:12:56;17.00;99.90
48988;DHT22;34799;51.440;-2.534;2023-07-31T05:15:23;17.00;99.90
48988;DHT22;34799;51.440;-2.534;2023-07-31T05:17:51;17.00;99.90
48988;DHT22;34799;51.440;-2.534;2023-07-31T05:20:18;17.00;99.90
48988;DHT22;34799;51.440;-2.534;2023-07-31T05:22:45;17.00;99.90
48988;DHT22;34799;51.440;-2.534;2023-07-31T05:25:13;17.00;99.90
48988;DHT22;34799;51.440;-2.534;2023-07-31T05:27:40;17.00;99.90
48988;DHT22;34799;51.440;-2.534;2023-07-31T05:30:08;16.90;99.90
48988;DHT22;34799;51.440;-2.534;2023-07-31T05:32:35;17.00;99.90
48988;DHT22;34799;51.440;-2.534;2023-07-31T05:35:02;17.00;99.90
48988;DHT22;34799;51.440;-2.534;2023-07-31T05:37:30;17.00;99.90
48988;DHT22;34799;51.440;-2.534;2023-07-31T05:39:57;17.00;99.90
48988;DHT22;34799;51.440;-2.534;2023-07-31T05:42:25;16.90;99.90
48988;DHT22;34799;51.440;-2.534;2023-07-31T05:44:52;16.90;99.90
48988;DHT22;34799;51.440;-2.534;2023-07-31T05:47:19;17.00;99.90
48988;DHT22;34799;51.440;-2.534;2023-07-31T05:49:48;17.00;99.90
48988;DHT22;34799;51.440;-2.534;2023-07-31T05:52:16;17.00;99.90
48988;DHT22;34799;51.440;-2.534;2023-07-31T05:54:43;17.00;99.90
48988;DHT22;34799;51.440;-2.534;2023-07-31T05:57:10;17.00;99.90
48988;DHT22;34799;51.440;-2.534;2023-07-31T05:59:37;17.00;99.90
48988;DHT22;34799;51.440;-2.534;2023-07-31T06:02:04;17.10;99.90
48988;DHT22;34799;51.440;-2.534;2023-07-31T06:04:32;17.00;99.90
48988;DHT22;34799;51.440;-2.534;2023-07-31T06:07:00;17.00;99.90
48988;DHT22;34799;51.440;-2.534;2023-07-31T06:09:27;17.00;99.90
48988;DHT22;34799;51.440;-2.534;2023-07-31T06:11:54;17.00;99.90
48988;DHT22;34799;51.440;-2.534;2023-07-31T06:14:21;17.00;99.90
48988;DHT22;34799;51.440;-2.534;2023-07-31T06:16:48;17.10;99.90
48988;DHT22;34799;51.440;-2.534;2023-07-31T06:19:15;17.10;99.90
48988;DHT22;34799;51.440;-2.534;2023-07-31T06:21:43;17.10;99.90
48988;DHT22;34799;51.440;-2.534;2023-07-31T06:24:11;17.10;99.90
48988;DHT22;34799;51.440;-2.534;2023-07-31T06:26:39;17.10;99.90
48988;DHT22;34799;51.440;-2.534;2023-07-31T06:29:06;17.20;99.90
48988;DHT22;34799;51.440;-2.534;2023-07-31T06:31:33;17.10;99.90
48988;DHT22;34799;51.440;-2.534;2023-07-31T06:34:00;17.10;99.90
48988;DHT22;34799;51.440;-2.534;2023-07-31T06:36:27;17.10;99.90
48988;DHT22;34799;51.440;-2.534;2023-07-31T06:38:55;17.20;99.90
48988;DHT22;34799;51.440;-2.534;2023-07-31T06:41:22;17.20;99.90
48988;DHT22;34799;51.440;-2.534;2023-07-31T06:43:50;17.20;99.90
48988;DHT22;34799;51.440;-2.534;2023-07-31T06:46:17;17.30;99.90
48988;DHT22;34799;51.440;-2.534;2023-07-31T06:48:45;17.30;99.90
48988;DHT22;34799;51.440;-2.534;2023-07-31T06:51:12;17.40;99.90
48988;DHT22;34799;51.440;-2.534;2023-07-31T06:53:39;17.40;99.90
48988;DHT22;34799;51.440;-2.534;2023-07-31T06:56:08;17.50;99.90
48988;DHT22;34799;51.440;-2.534;2023-07-31T06:58:35;17.50;99.90
48988;DHT22;34799;51.440;-2.534;2023-07-31T07:01:02;17.60;99.90
48988;DHT22;34799;51.440;-2.534;2023-07-31T07:03:30;17.60;99.90
48988;DHT22;34799;51.440;-2.534;2023-07-31T07:05:57;17.70;99.90
48988;DHT22;34799;51.440;-2.534;2023-07-31T07:08:24;17.80;99.90
48988;DHT22;34799;51.440;-2.534;2023-07-31T07:10:53;17.80;99.90
48988;DHT22;34799;51.440;-2.534;2023-07-31T07:13:21;17.80;99.90
48988;DHT22;34799;51.440;-2.534;2023-07-31T07:15:49;17.90;99.90
48988;DHT22;34799;51.440;-2.534;2023-07-31T07:18:16;17.90;99.90
48988;DHT22;34799;51.440;-2.534;2023-07-31T07:20:50;18.00;99.90
48988;DHT22;34799;51.440;-2.534;2023-07-31T07:23:18;17.90;99.90
48988;DHT22;34799;51.440;-2.534;2023-07-31T07:25:46;18.00;99.90
48988;DHT22;34799;51.440;-2.534;2023-07-31T07:28:14;18.00;99.90
48988;DHT22;34799;51.440;-2.534;2023-07-31T07:30:42;18.00;99.90
48988;DHT22;34799;51.440;-2.534;2023-07-31T07:33:10;18.00;99.90
48988;DHT22;34799;51.440;-2.534;2023-07-31T07:35:37;18.00;99.90
48988;DHT22;34799;51.440;-2.534;2023-07-31T07:38:04;18.00;99.90
48988;DHT22;34799;51.440;-2.534;2023-07-31T07:40:31;18.10;99.90
48988;DHT22;34799;51.440;-2.534;2023-07-31T07:42:58;18.10;99.90
48988;DHT22;34799;51.440;-2.534;2023-07-31T07:45:26;18.10;99.90
48988;DHT22;34799;51.440;-2.534;2023-07-31T07:47:53;18.20;99.90
48988;DHT22;34799;51.440;-2.534;2023-07-31T07:50:21;18.20;99.90
48988;DHT22;34799;51.440;-2.534;2023-07-31T07:52:48;18.30;99.90
48988;DHT22;34799;51.440;-2.534;2023-07-31T07:55:15;18.30;99.90
48988;DHT22;34799;51.440;-2.534;2023-07-31T07:57:42;18.20;99.90
48988;DHT22;34799;51.440;-2.534;2023-07-31T08:00:12;18.20;99.90
48988;DHT22;34799;51.440;-2.534;2023-07-31T08:02:40;18.10;99.90
48988;DHT22;34799;51.440;-2.534;2023-07-31T08:05:07;18.10;99.90
48988;DHT22;34799;51.440;-2.534;2023-07-31T08:07:35;18.10;99.90
48988;DHT22;34799;51.440;-2.534;2023-07-31T08:10:02;18.00;99.90
48988;DHT22;34799;51.440;-2.534;2023-07-31T08:12:29;18.00;99.90
48988;DHT22;34799;51.440;-2.534;2023-07-31T08:14:56;18.00;99.90
48988;DHT22;34799;51.440;-2.534;2023-07-31T08:17:24;18.00;99.90
48988;DHT22;34799;51.440;-2.534;2023-07-31T08:19:51;18.00;99.90
48988;DHT22;34799;51.440;-2.534;2023-07-31T08:22:18;18.00;99.90
48988;DHT22;34799;51.440;-2.534;2023-07-31T08:24:45;18.10;99.90
48988;DHT22;34799;51.440;-2.534;2023-07-31T08:27:12;18.10;99.90
48988;DHT22;34799;51.440;-2.534;2023-07-31T08:29:39;18.10;99.90
48988;DHT22;34799;51.440;-2.534;2023-07-31T08:32:06;18.10;99.90
48988;DHT22;34799;51.440;-2.534;2023-07-31T08:34:33;18.10;99.90
48988;DHT22;34799;51.440;-2.534;2023-07-31T08:37:00;18.10;99.90
48988;DHT22;34799;51.440;-2.534;2023-07-31T08:39:28;18.00;99.90
48988;DHT22;34799;51.440;-2.534;2023-07-31T08:41:58;18.00;99.90
48988;DHT22;34799;51.440;-2.534;2023-07-31T08:44:26;17.90;99.90
48988;DHT22;34799;51.440;-2.534;2023-07-31T08:46:54;17.90;99.90
48988;DHT22;34799;51.440;-2.534;2023-07-31T08:49:22;17.80;99.90
48988;DHT22;34799;51.440;-2.534;2023-07-31T08:51:52;17.90;99.90
48988;DHT22;34799;51.440;-2.534;2023-07-31T08:54:21;17.90;99.90
48988;DHT22;34799;51.440;-2.534;2023-07-31T08:56:49;17.90;99.90
48988;DHT22;34799;51.440;-2.534;2023-07-31T08:59:18;18.00;99.90
48988;DHT22;34799;51.440;-2.534;2023-07-31T09:01:49;18.00;99.90
48988;DHT22;34799;51.440;-2.534;2023-07-31T09:04:18;18.10;99.90
48988;DHT22;34799;51.440;-2.534;2023-07-31T09:06:47;18.00;99.90
48988;DHT22;34799;51.440;-2.534;2023-07-31T09:09:16;18.00;99.90
48988;DHT22;34799;51.440;-2.534;2023-07-31T09:11:43;19.40;99.90
48988;DHT22;34799;51.440;-2.534;2023-07-31T09:14:10;17.90;99.90
48988;DHT22;34799;51.440;-2.534;2023-07-31T09:16:54;17.90;99.90
48988;DHT22;34799;51.440;-2.534;2023-07-31T09:19:28;17.80;99.90
48988;DHT22;34799;51.440;-2.534;2023-07-31T09:21:55;17.70;99.90
48988;DHT22;34799;51.440;-2.534;2023-07-31T09:24:30;17.60;99.90
48988;DHT22;34799;51.440;-2.534;2023-07-31T09:26:59;17.50;99.90
48988;DHT22;34799;51.440;-2.534;2023-07-31T09:29:28;17.40;99.90
48988;DHT22;34799;51.440;-2.534;2023-07-31T09:31:57;16.60;99.90
48988;DHT22;34799;51.440;-2.534;2023-07-31T09:34:38;17.40;99.90
48988;DHT22;34799;51.440;-2.534;2023-07-31T09:37:08;17.40;99.90
48988;DHT22;34799;51.440;-2.534;2023-07-31T09:39:48;17.40;99.90
48988;DHT22;34799;51.440;-2.534;2023-07-31T09:42:26;17.60;99.90
48988;DHT22;34799;51.440;-2.534;2023-07-31T09:44:54;17.60;99.90
48988;DHT22;34799;51.440;-2.534;2023-07-31T09:47:24;17.70;99.90
48988;DHT22;34799;51.440;-2.534;2023-07-31T09:49:52;17.80;99.90
48988;DHT22;34799;51.440;-2.534;2023-07-31T09:52:19;17.90;99.90
48988;DHT22;34799;51.440;-2.534;2023-07-31T09:54:46;18.00;99.90
48988;DHT22;34799;51.440;-2.534;2023-07-31T09:57:15;18.10;99.90
48988;DHT22;34799;51.440;-2.534;2023-07-31T09:59:45;18.30;99.90
48988;DHT22;34799;51.440;-2.534;2023-07-31T10:02:15;18.30;99.90
48988;DHT22;34799;51.440;-2.534;2023-07-31T10:04:49;18.40;99.90
48988;DHT22;34799;51.440;-2.534;2023-07-31T10:07:19;18.50;99.90
48988;DHT22;34799;51.440;-2.534;2023-07-31T10:09:47;18.50;99.90
48988;DHT22;34799;51.440;-2.534;2023-07-31T10:12:16;18.30;99.90
48988;DHT22;34799;51.440;-2.534;2023-07-31T10:14:46;18.30;99.90
48988;DHT22;34799;51.440;-2.534;2023-07-31T10:17:13;18.30;99.90
48988;DHT22;34799;51.440;-2.534;2023-07-31T10:19:42;18.30;99.90
48988;DHT22;34799;51.440;-2.534;2023-07-31T10:22:11;18.20;99.90
48988;DHT22;34799;51.440;-2.534;2023-07-31T10:24:42;18.00;99.90
48988;DHT22;34799;51.440;-2.534;2023-07-31T10:27:10;18.00;99.90
48988;DHT22;34799;51.440;-2.534;2023-07-31T10:29:38;18.00;99.90
48988;DHT22;34799;51.440;-2.534;2023-07-31T10:32:07;17.90;99.90
48988;DHT22;34799;51.440;-2.534;2023-07-31T10:34:39;17.90;99.90
48988;DHT22;34799;51.440;-2.534;2023-07-31T10:37:40;17.90;99.90
48988;DHT22;34799;51.440;-2.534;2023-07-31T10:42:56;18.00;99.90
48988;DHT22;34799;51.440;-2.534;2023-07-31T10:48:04;18.00;99.90
48988;DHT22;34799;51.440;-2.534;2023-07-31T10:50:32;18.00;99.90
48988;DHT22;34799;51.440;-2.534;2023-07-31T10:53:05;18.00;99.90
48988;DHT22;34799;51.440;-2.534;2023-07-31T10:55:40;18.00;99.90
48988;DHT22;34799;51.440;-2.534;2023-07-31T10:58:11;17.90;99.90
48988;DHT22;34799;51.440;-2.534;2023-07-31T11:00:43;17.90;99.90
48988;DHT22;34799;51.440;-2.534;2023-07-31T11:03:18;17.90;99.90
48988;DHT22;34799;51.440;-2.534;2023-07-31T11:06:01;17.90;99.90
48988;DHT22;34799;51.440;-2.534;2023-07-31T11:08:33;17.80;99.90
48988;DHT22;34799;51.440;-2.534;2023-07-31T11:13:51;17.80;99.90
48988;DHT22;34799;51.440;-2.534;2023-07-31T11:16:26;17.70;99.90
48988;DHT22;34799;51.440;-2.534;2023-07-31T11:18:53;17.70;99.90
48988;DHT22;34799;51.440;-2.534;2023-07-31T11:21:23;17.60;99.90
48988;DHT22;34799;51.440;-2.534;2023-07-31T11:23:52;17.70;99.90
48988;DHT22;34799;51.440;-2.534;2023-07-31T11:26:20;17.70;99.90
48988;DHT22;34799;51.440;-2.534;2023-07-31T11:28:48;17.70;99.90
48988;DHT22;34799;51.440;-2.534;2023-07-31T11:31:15;17.70;99.90
48988;DHT22;34799;51.440;-2.534;2023-07-31T11:33:43;17.70;99.90
48988;DHT22;34799;51.440;-2.534;2023-07-31T11:36:17;17.80;99.90
48988;DHT22;34799;51.440;-2.534;2023-07-31T11:38:44;17.80;99.90
48988;DHT22;34799;51.440;-2.534;2023-07-31T11:41:14;17.70;99.90
48988;DHT22;34799;51.440;-2.534;2023-07-31T11:43:41;17.70;99.90
48988;DHT22;34799;51.440;-2.534;2023-07-31T11:46:09;17.70;99.90
48988;DHT22;34799;51.440;-2.534;2023-07-31T11:48:37;17.80;99.90
48988;DHT22;34799;51.440;-2.534;2023-07-31T11:51:10;17.80;99.90
48988;DHT22;34799;51.440;-2.534;2023-07-31T11:53:50;17.90;99.90
48988;DHT22;34799;51.440;-2.534;2023-07-31T11:56:19;17.90;99.90
48988;DHT22;34799;51.440;-2.534;2023-07-31T11:58:59;17.80;99.90
48988;DHT22;34799;51.440;-2.534;2023-07-31T12:01:29;17.80;99.90
48988;DHT22;34799;51.440;-2.534;2023-07-31T12:03:56;17.70;99.90
48988;DHT22;34799;51.440;-2.534;2023-07-31T12:06:34;17.60;99.90
48988;DHT22;34799;51.440;-2.534;2023-07-31T12:09:03;17.60;99.90
48988;DHT22;34799;51.440;-2.534;2023-07-31T12:11:30;17.50;99.90
48988;DHT22;34799;51.440;-2.534;2023-07-31T12:13:58;17.50;99.90
48988;DHT22;34799;51.440;-2.534;2023-07-31T12:16:26;17.50;99.90
48988;DHT22;34799;51.440;-2.534;2023-07-31T12:18:57;17.40;99.90
48988;DHT22;34799;51.440;-2.534;2023-07-31T12:21:27;17.30;99.90
48988;DHT22;34799;51.440;-2.534;2023-07-31T12:23:54;17.30;99.90
48988;DHT22;34799;51.440;-2.534;2023-07-31T12:26:22;17.30;99.90
48988;DHT22;34799;51.440;-2.534;2023-07-31T12:28:50;17.40;99.90
48988;DHT22;34799;51.440;-2.534;2023-07-31T12:31:19;17.40;99.90
48988;DHT22;34799;51.440;-2.534;2023-07-31T12:33:49;17.40;99.90
48988;DHT22;34799;51.440;-2.534;2023-07-31T12:36:23;17.40;99.90
48988;DHT22;34799;51.440;-2.534;2023-07-31T12:38:51;17.40;99.90
48988;DHT22;34799;51.440;-2.534;2023-07-31T12:41:18;17.40;99.90
48988;DHT22;34799;51.440;-2.534;2023-07-31T12:43:46;17.30;99.90
48988;DHT22;34799;51.440;-2.534;2023-07-31T12:46:13;17.30;99.90
48988;DHT22;34799;51.440;-2.534;2023-07-31T12:48:41;17.30;99.90
48988;DHT22;34799;51.440;-2.534;2023-07-31T12:51:10;17.30;99.90
48988;DHT22;34799;51.440;-2.534;2023-07-31T12:53:38;17.20;99.90
48988;DHT22;34799;51.440;-2.534;2023-07-31T12:56:07;17.20;99.90
48988;DHT22;34799;51.440;-2.534;2023-07-31T12:58:34;17.10;99.90
48988;DHT22;34799;51.440;-2.534;2023-07-31T13:01:02;17.00;99.90
48988;DHT22;34799;51.440;-2.534;2023-07-31T13:03:29;17.10;99.90
48988;DHT22;34799;51.440;-2.534;2023-07-31T13:05:57;17.10;99.90
48988;DHT22;34799;51.440;-2.534;2023-07-31T13:08:24;17.10;99.90
48988;DHT22;34799;51.440;-2.534;2023-07-31T13:10:52;17.10;99.90
48988;DHT22;34799;51.440;-2.534;2023-07-31T13:13:19;17.20;99.90
48988;DHT22;34799;51.440;-2.534;2023-07-31T13:15:46;17.30;99.90
48988;DHT22;34799;51.440;-2.534;2023-07-31T13:18:14;17.40;99.90
48988;DHT22;34799;51.440;-2.534;2023-07-31T13:20:41;17.50;99.90
48988;DHT22;34799;51.440;-2.534;2023-07-31T13:23:09;17.50;99.90
48988;DHT22;34799;51.440;-2.534;2023-07-31T13:25:36;17.50;99.90
48988;DHT22;34799;51.440;-2.534;2023-07-31T13:28:04;17.60;99.90
48988;DHT22;34799;51.440;-2.534;2023-07-31T13:30:31;17.60;99.90
48988;DHT22;34799;51.440;-2.534;2023-07-31T13:32:59;17.60;99.90
48988;DHT22;34799;51.440;-2.534;2023-07-31T13:35:26;17.60;99.90
48988;DHT22;34799;51.440;-2.534;2023-07-31T13:37:54;17.60;99.90
48988;DHT22;34799;51.440;-2.534;2023-07-31T13:40:21;17.70;99.90
48988;DHT22;34799;51.440;-2.534;2023-07-31T13:42:49;17.60;99.90
48988;DHT22;34799;51.440;-2.534;2023-07-31T13:45:16;17.70;99.90
48988;DHT22;34799;51.440;-2.534;2023-07-31T13:47:43;17.80;99.90
48988;DHT22;34799;51.440;-2.534;2023-07-31T13:50:11;17.80;99.90
48988;DHT22;34799;51.440;-2.534;2023-07-31T13:52:38;17.90;99.90
48988;DHT22;34799;51.440;-2.534;2023-07-31T13:55:06;18.00;99.90
48988;DHT22;34799;51.440;-2.534;2023-07-31T13:57:34;18.20;99.90
48988;DHT22;34799;51.440;-2.534;2023-07-31T14:00:01;18.20;99.90
48988;DHT22;34799;51.440;-2.534;2023-07-31T14:02:30;18.40;99.90
48988;DHT22;34799;51.440;-2.534;2023-07-31T14:04:57;18.50;99.90
48988;DHT22;34799;51.440;-2.534;2023-07-31T14:07:25;18.60;99.90
48988;DHT22;34799;51.440;-2.534;2023-07-31T14:09:52;18.80;99.90
48988;DHT22;34799;51.440;-2.534;2023-07-31T14:12:19;18.80;99.90
48988;DHT22;34799;51.440;-2.534;2023-07-31T14:14:57;19.00;99.90
48988;DHT22;34799;51.440;-2.534;2023-07-31T14:17:24;19.00;99.90
48988;DHT22;34799;51.440;-2.534;2023-07-31T14:19:52;19.00;99.90
48988;DHT22;34799;51.440;-2.534;2023-07-31T14:22:29;19.10;99.90
48988;DHT22;34799;51.440;-2.534;2023-07-31T14:24:56;19.10;99.90
48988;DHT22;34799;51.440;-2.534;2023-07-31T14:27:24;19.10;99.90
48988;DHT22;34799;51.440;-2.534;2023-07-31T14:29:51;19.00;99.90
48988;DHT22;34799;51.440;-2.534;2023-07-31T14:32:18;19.10;99.90
48988;DHT22;34799;51.440;-2.534;2023-07-31T14:34:45;19.10;99.90
48988;DHT22;34799;51.440;-2.534;2023-07-31T14:37:12;19.00;99.90
48988;DHT22;34799;51.440;-2.534;2023-07-31T14:39:39;18.90;99.90
48988;DHT22;34799;51.440;-2.534;2023-07-31T14:42:07;18.80;99.90
48988;DHT22;34799;51.440;-2.534;2023-07-31T14:44:34;18.80;99.90
48988;DHT22;34799;51.440;-2.534;2023-07-31T14:47:01;18.90;99.90
48988;DHT22;34799;51.440;-2.534;2023-07-31T14:49:28;18.80;99.90
48988;DHT22;34799;51.440;-2.534;2023-07-31T14:51:56;18.80;99.90
48988;DHT22;34799;51.440;-2.534;2023-07-31T14:54:23;18.80;99.90
48988;DHT22;34799;51.440;-2.534;2023-07-31T14:56:51;18.90;99.90
48988;DHT22;34799;51.440;-2.534;2023-07-31T14:59:18;18.80;99.90
48988;DHT22;34799;51.440;-2.534;2023-07-31T15:01:45;19.00;99.90
48988;DHT22;34799;51.440;-2.534;2023-07-31T15:04:13;19.10;99.90
48988;DHT22;34799;51.440;-2.534;2023-07-31T15:06:40;19.20;99.90
48988;DHT22;34799;51.440;-2.534;2023-07-31T15:09:08;19.20;99.90
48988;DHT22;34799;51.440;-2.534;2023-07-31T15:11:35;19.30;99.90
48988;DHT22;34799;51.440;-2.534;2023-07-31T15:14:03;19.50;99.90
48988;DHT22;34799;51.440;-2.534;2023-07-31T15:16:30;19.60;99.90
48988;DHT22;34799;51.440;-2.534;2023-07-31T15:18:58;19.70;99.90
48988;DHT22;34799;51.440;-2.534;2023-07-31T15:21:25;19.70;99.90
48988;DHT22;34799;51.440;-2.534;2023-07-31T15:23:53;19.80;99.90
48988;DHT22;34799;51.440;-2.534;2023-07-31T15:26:20;19.70;99.90
48988;DHT22;34799;51.440;-2.534;2023-07-31T15:28:50;19.60;99.90
48988;DHT22;34799;51.440;-2.534;2023-07-31T15:31:22;19.60;99.90
48988;DHT22;34799;51.440;-2.534;2023-07-31T15:33:51;19.50;99.90
48988;DHT22;34799;51.440;-2.534;2023-07-31T15:36:19;19.40;99.90
48988;DHT22;34799;51.440;-2.534;2023-07-31T15:38:47;19.30;99.90